sensor_id;sensor_type;location;lat;lon;timestamp;temperature;humidity
45619;DHT22;31343;47.520;19.144;2022-08-18T00:00:26;24.10;94.70
45619;DHT22;31343;47.520;19.144;2022-08-18T00:02:52;24.10;94.80
45619;DHT22;31343;47.520;19.144;2022-08-18T00:05:18;24.00;95.00
45619;DHT22;31343;47.520;19.144;2022-08-18T00:07:45;23.90;95.30
45619;DHT22;31343;47.520;19.144;2022-08-18T00:10:11;23.90;95.40
45619;DHT22;31343;47.520;19.144;2022-08-18T00:12:39;23.90;95.40
45619;DHT22;31343;47.520;19.144;2022-08-18T00:15:06;23.80;95.70
45619;DHT22;31343;47.520;19.144;2022-08-18T00:17:32;23.80;95.80
45619;DHT22;31343;47.520;19.144;2022-08-18T00:19:58;23.80;95.90
45619;DHT22;31343;47.520;19.144;2022-08-18T00:22:24;23.70;96.10
45619;DHT22;31343;47.520;19.144;2022-08-18T00:24:51;23.60;96.10
45619;DHT22;31343;47.520;19.144;2022-08-18T00:27:21;23.60;96.40
45619;DHT22;31343;47.520;19.144;2022-08-18T00:29:48;23.60;96.80
45619;DHT22;31343;47.520;19.144;2022-08-18T00:32:15;23.50;96.90
45619;DHT22;31343;47.520;19.144;2022-08-18T00:34:40;23.50;97.00
45619;DHT22;31343;47.520;19.144;2022-08-18T00:37:06;23.50;97.20
45619;DHT22;31343;47.520;19.144;2022-08-18T00:39:32;23.50;97.30
45619;DHT22;31343;47.520;19.144;2022-08-18T00:41:58;23.40;97.30
45619;DHT22;31343;47.520;19.144;2022-08-18T00:44:24;23.50;97.40
45619;DHT22;31343;47.520;19.144;2022-08-18T00:46:50;23.40;97.50
45619;DHT22;31343;47.520;19.144;2022-08-18T00:49:16;23.40;97.60
45619;DHT22;31343;47.520;19.144;2022-08-18T00:51:43;23.40;97.70
45619;DHT22;31343;47.520;19.144;2022-08-18T00:54:21;23.30;97.90
45619;DHT22;31343;47.520;19.144;2022-08-18T00:56:48;23.30;98.10
45619;DHT22;31343;47.520;19.144;2022-08-18T00:59:17;23.30;98.10
45619;DHT22;31343;47.520;19.144;2022-08-18T01:01:44;23.30;98.10
45619;DHT22;31343;47.520;19.144;2022-08-18T01:04:30;23.30;98.30
45619;DHT22;31343;47.520;19.144;2022-08-18T01:07:00;23.30;98.40
45619;DHT22;31343;47.520;19.144;2022-08-18T01:09:26;23.30;98.40
45619;DHT22;31343;47.520;19.144;2022-08-18T01:11:52;23.10;98.70
45619;DHT22;31343;47.520;19.144;2022-08-18T01:14:18;23.10;98.90
45619;DHT22;31343;47.520;19.144;2022-08-18T01:16:44;23.20;99.00
45619;DHT22;31343;47.520;19.144;2022-08-18T01:19:29;23.20;98.90
45619;DHT22;31343;47.520;19.144;2022-08-18T01:22:21;23.20;98.90
45619;DHT22;31343;47.520;19.144;2022-08-18T01:24:49;23.10;99.10
45619;DHT22;31343;47.520;19.144;2022-08-18T01:27:33;23.00;99.20
45619;DHT22;31343;47.520;19.144;2022-08-18T01:30:06;23.00;99.40
45619;DHT22;31343;47.520;19.144;2022-08-18T01:32:34;23.10;99.30
45619;DHT22;31343;47.520;19.144;2022-08-18T01:35:00;22.90;99.30
45619;DHT22;31343;47.520;19.144;2022-08-18T01:37:26;22.90;99.40
45619;DHT22;31343;47.520;19.144;2022-08-18T01:39:53;23.00;99.50
45619;DHT22;31343;47.520;19.144;2022-08-18T01:42:19;23.00;99.60
45619;DHT22;31343;47.520;19.144;2022-08-18T01:44:45;23.00;99.90
45619;DHT22;31343;47.520;19.144;2022-08-18T01:47:12;22.90;99.70
45619;DHT22;31343;47.520;19.144;2022-08-18T01:49:38;22.90;99.90
45619;DHT22;31343;47.520;19.144;2022-08-18T01:52:06;22.90;99.90
45619;DHT22;31343;47.520;19.144;2022-08-18T01:54:32;22.90;99.90
45619;DHT22;31343;47.520;19.144;2022-08-18T01:56:58;22.80;99.90
45619;DHT22;31343;47.520;19.144;2022-08-18T01:59:23;22.80;99.90
45619;DHT22;31343;47.520;19.144;2022-08-18T02:01:49;22.70;99.90
45619;DHT22;31343;47.520;19.144;2022-08-18T02:04:24;22.80;99.90
45619;DHT22;31343;47.520;19.144;2022-08-18T02:06:51;22.70;99.90
45619;DHT22;31343;47.520;19.144;2022-08-18T02:09:17;22.70;99.90
45619;DHT22;31343;47.520;19.144;2022-08-18T02:11:43;22.70;99.90
45619;DHT22;31343;47.520;19.144;2022-08-18T02:14:08;22.70;99.90
45619;DHT22;31343;47.520;19.144;2022-08-18T02:16:34;22.70;99.90
45619;DHT22;31343;47.520;19.144;2022-08-18T02:18:59;22.80;99.90
45619;DHT22;31343;47.520;19.144;2022-08-18T02:21:25;22.70;99.90
45619;DHT22;31343;47.520;19.144;2022-08-18T02:23:51;22.70;99.90
45619;DHT22;31343;47.520;19.144;2022-08-18T02:26:16;22.70;99.90
45619;DHT22;31343;47.520;19.144;2022-08-18T02:28:43;22.60;99.90
45619;DHT22;31343;47.520;19.144;2022-08-18T02:31:13;22.60;99.90
45619;DHT22;31343;47.520;19.144;2022-08-18T02:33:39;22.60;99.90
45619;DHT22;31343;47.520;19.144;2022-08-18T02:36:05;22.50;99.90
45619;DHT22;31343;47.520;19.144;2022-08-18T02:38:31;22.40;99.90
45619;DHT22;31343;47.520;19.144;2022-08-18T02:40:58;22.40;99.90
45619;DHT22;31343;47.520;19.144;2022-08-18T02:43:24;22.50;99.90
45619;DHT22;31343;47.520;19.144;2022-08-18T02:45:51;22.40;99.90
45619;DHT22;31343;47.520;19.144;2022-08-18T02:48:16;22.50;99.90
45619;DHT22;31343;47.520;19.144;2022-08-18T02:50:46;22.40;99.90
45619;DHT22;31343;47.520;19.144;2022-08-18T02:53:12;22.40;99.90
45619;DHT22;31343;47.520;19.144;2022-08-18T02:55:47;22.30;99.90
45619;DHT22;31343;47.520;19.144;2022-08-18T02:58:14;22.20;99.90
45619;DHT22;31343;47.520;19.144;2022-08-18T03:00:39;22.20;99.90
45619;DHT22;31343;47.520;19.144;2022-08-18T03:03:05;22.20;99.90
45619;DHT22;31343;47.520;19.144;2022-08-18T03:05:31;22.30;99.90
45619;DHT22;31343;47.520;19.144;2022-08-18T03:07:56;22.20;99.90
45619;DHT22;31343;47.520;19.144;2022-08-18T03:10:24;22.20;99.90
45619;DHT22;31343;47.520;19.144;2022-08-18T03:12:50;22.30;99.90
45619;DHT22;31343;47.520;19.144;2022-08-18T03:15:15;22.20;99.90
45619;DHT22;31343;47.520;19.144;2022-08-18T03:17:41;22.10;99.90
45619;DHT22;31343;47.520;19.144;2022-08-18T03:20:07;22.00;99.90
45619;DHT22;31343;47.520;19.144;2022-08-18T03:22:32;22.00;99.90
45619;DHT22;31343;47.520;19.144;2022-08-18T03:24:58;22.00;99.90
45619;DHT22;31343;47.520;19.144;2022-08-18T03:27:24;21.90;99.90
45619;DHT22;31343;47.520;19.144;2022-08-18T03:29:50;21.90;99.90
45619;DHT22;31343;47.520;19.144;2022-08-18T03:32:15;21.90;99.90
45619;DHT22;31343;47.520;19.144;2022-08-18T03:34:41;21.90;99.90
45619;DHT22;31343;47.520;19.144;2022-08-18T03:37:08;22.00;99.90
45619;DHT22;31343;47.520;19.144;2022-08-18T03:39:34;22.00;99.90
45619;DHT22;31343;47.520;19.144;2022-08-18T03:41:59;22.00;99.90
45619;DHT22;31343;47.520;19.144;2022-08-18T03:44:25;21.90;99.90
45619;DHT22;31343;47.520;19.144;2022-08-18T03:46:52;21.90;99.90
45619;DHT22;31343;47.520;19.144;2022-08-18T03:49:17;22.00;99.90
45619;DHT22;31343;47.520;19.144;2022-08-18T03:51:44;21.90;99.90
45619;DHT22;31343;47.520;19.144;2022-08-18T03:54:13;21.90;99.90
45619;DHT22;31343;47.520;19.144;2022-08-18T03:56:40;21.90;99.90
45619;DHT22;31343;47.520;19.144;2022-08-18T03:59:07;21.90;99.90
45619;DHT22;31343;47.520;19.144;2022-08-18T04:01:36;21.80;99.90
45619;DHT22;31343;47.520;19.144;2022-08-18T04:04:04;21.80;99.90
45619;DHT22;31343;47.520;19.144;2022-08-18T04:06:31;21.70;99.90
45619;DHT22;31343;47.520;19.144;2022-08-18T04:08:58;21.60;99.90
45619;DHT22;31343;47.520;19.144;2022-08-18T04:11:24;21.70;99.90
45619;DHT22;31343;47.520;19.144;2022-08-18T04:13:53;21.80;99.90
45619;DHT22;31343;47.520;19.144;2022-08-18T04:16:19;21.90;99.90
45619;DHT22;31343;47.520;19.144;2022-08-18T04:18:45;22.00;99.90
45619;DHT22;31343;47.520;19.144;2022-08-18T04:21:11;22.10;99.90
45619;DHT22;31343;47.520;19.144;2022-08-18T04:23:38;22.00;99.90
45619;DHT22;31343;47.520;19.144;2022-08-18T04:26:04;22.10;99.90
45619;DHT22;31343;47.520;19.144;2022-08-18T04:28:31;22.20;99.90
45619;DHT22;31343;47.520;19.144;2022-08-18T04:30:57;22.20;99.90
45619;DHT22;31343;47.520;19.144;2022-08-18T04:33:27;22.30;99.90
45619;DHT22;31343;47.520;19.144;2022-08-18T04:35:53;22.40;99.90
45619;DHT22;31343;47.520;19.144;2022-08-18T04:38:19;22.30;99.90
45619;DHT22;31343;47.520;19.144;2022-08-18T04:40:44;22.40;99.90
45619;DHT22;31343;47.520;19.144;2022-08-18T04:43:11;22.50;99.90
45619;DHT22;31343;47.520;19.144;2022-08-18T04:45:40;22.60;99.90
45619;DHT22;31343;47.520;19.144;2022-08-18T04:48:06;22.70;99.90
45619;DHT22;31343;47.520;19.144;2022-08-18T04:50:31;22.70;99.90
45619;DHT22;31343;47.520;19.144;2022-08-18T04:52:57;22.90;99.90
45619;DHT22;31343;47.520;19.144;2022-08-18T04:55:51;23.00;99.90
45619;DHT22;31343;47.520;19.144;2022-08-18T04:58:17;23.10;99.90
45619;DHT22;31343;47.520;19.144;2022-08-18T05:00:46;23.30;99.90
45619;DHT22;31343;47.520;19.144;2022-08-18T05:03:20;23.60;99.90
45619;DHT22;31343;47.520;19.144;2022-08-18T05:05:54;24.00;99.90
45619;DHT22;31343;47.520;19.144;2022-08-18T05:08:20;24.50;99.90
45619;DHT22;31343;47.520;19.144;2022-08-18T05:10:46;25.10;99.90
45619;DHT22;31343;47.520;19.144;2022-08-18T05:13:12;25.50;99.90
45619;DHT22;31343;47.520;19.144;2022-08-18T05:15:41;25.90;99.90
45619;DHT22;31343;47.520;19.144;2022-08-18T05:18:08;26.30;99.40
45619;DHT22;31343;47.520;19.144;2022-08-18T05:20:33;26.70;98.60
45619;DHT22;31343;47.520;19.144;2022-08-18T05:22:59;27.40;97.90
45619;DHT22;31343;47.520;19.144;2022-08-18T05:25:24;27.70;96.80
45619;DHT22;31343;47.520;19.144;2022-08-18T05:27:50;28.30;96.30
45619;DHT22;31343;47.520;19.144;2022-08-18T05:30:15;28.60;95.60
45619;DHT22;31343;47.520;19.144;2022-08-18T05:32:42;28.80;95.10
45619;DHT22;31343;47.520;19.144;2022-08-18T05:35:15;28.90;95.00
45619;DHT22;31343;47.520;19.144;2022-08-18T05:37:56;29.30;94.80
45619;DHT22;31343;47.520;19.144;2022-08-18T05:40:25;29.70;94.40
45619;DHT22;31343;47.520;19.144;2022-08-18T05:42:52;29.90;93.90
45619;DHT22;31343;47.520;19.144;2022-08-18T05:45:18;30.20;93.60
45619;DHT22;31343;47.520;19.144;2022-08-18T05:47:44;30.20;93.20
45619;DHT22;31343;47.520;19.144;2022-08-18T05:50:11;30.70;92.70
45619;DHT22;31343;47.520;19.144;2022-08-18T05:52:39;31.00;92.20
45619;DHT22;31343;47.520;19.144;2022-08-18T05:55:06;31.80;91.60
45619;DHT22;31343;47.520;19.144;2022-08-18T05:58:03;32.20;90.90
45619;DHT22;31343;47.520;19.144;2022-08-18T06:00:30;32.60;90.10
45619;DHT22;31343;47.520;19.144;2022-08-18T06:03:15;32.80;89.50
45619;DHT22;31343;47.520;19.144;2022-08-18T06:05:45;33.00;89.20
45619;DHT22;31343;47.520;19.144;2022-08-18T06:08:14;33.50;87.70
45619;DHT22;31343;47.520;19.144;2022-08-18T06:10:43;33.80;86.40
45619;DHT22;31343;47.520;19.144;2022-08-18T06:13:09;33.90;85.70
45619;DHT22;31343;47.520;19.144;2022-08-18T06:20:55;33.70;83.20
45619;DHT22;31343;47.520;19.144;2022-08-18T06:26:01;34.00;83.60
45619;DHT22;31343;47.520;19.144;2022-08-18T06:28:37;34.10;83.70
45619;DHT22;31343;47.520;19.144;2022-08-18T06:31:16;33.80;82.80
45619;DHT22;31343;47.520;19.144;2022-08-18T06:43:36;32.60;83.80
45619;DHT22;31343;47.520;19.144;2022-08-18T06:46:11;32.00;84.70
45619;DHT22;31343;47.520;19.144;2022-08-18T06:48:44;32.30;85.40
45619;DHT22;31343;47.520;19.144;2022-08-18T06:51:15;33.10;84.30
45619;DHT22;31343;47.520;19.144;2022-08-18T06:53:58;33.40;82.80
45619;DHT22;31343;47.520;19.144;2022-08-18T06:56:26;34.30;82.30
45619;DHT22;31343;47.520;19.144;2022-08-18T06:58:53;35.20;79.70
45619;DHT22;31343;47.520;19.144;2022-08-18T07:01:19;35.30;78.80
45619;DHT22;31343;47.520;19.144;2022-08-18T07:03:46;34.60;78.50
45619;DHT22;31343;47.520;19.144;2022-08-18T07:08:46;34.40;79.80
45619;DHT22;31343;47.520;19.144;2022-08-18T07:11:14;34.80;78.50
45619;DHT22;31343;47.520;19.144;2022-08-18T07:13:43;35.30;77.80
45619;DHT22;31343;47.520;19.144;2022-08-18T07:16:23;33.90;78.20
45619;DHT22;31343;47.520;19.144;2022-08-18T07:18:49;33.40;81.30
45619;DHT22;31343;47.520;19.144;2022-08-18T07:21:26;33.40;80.20
45619;DHT22;31343;47.520;19.144;2022-08-18T07:29:18;32.50;81.10
45619;DHT22;31343;47.520;19.144;2022-08-18T07:31:47;32.40;80.60
45619;DHT22;31343;47.520;19.144;2022-08-18T07:34:16;32.70;80.60
45619;DHT22;31343;47.520;19.144;2022-08-18T07:36:49;33.40;79.80
45619;DHT22;31343;47.520;19.144;2022-08-18T07:39:20;33.60;79.00
45619;DHT22;31343;47.520;19.144;2022-08-18T07:47:20;33.10;80.20
45619;DHT22;31343;47.520;19.144;2022-08-18T07:49:47;33.90;78.80
45619;DHT22;31343;47.520;19.144;2022-08-18T07:52:19;33.90;78.60
45619;DHT22;31343;47.520;19.144;2022-08-18T08:00:21;33.90;78.60
45619;DHT22;31343;47.520;19.144;2022-08-18T08:02:55;34.50;77.80
45619;DHT22;31343;47.520;19.144;2022-08-18T08:08:02;33.90;78.40
45619;DHT22;31343;47.520;19.144;2022-08-18T08:10:49;33.90;78.50
45619;DHT22;31343;47.520;19.144;2022-08-18T08:13:19;33.80;78.40
45619;DHT22;31343;47.520;19.144;2022-08-18T08:16:01;34.40;78.60
45619;DHT22;31343;47.520;19.144;2022-08-18T08:21:15;34.10;77.50
45619;DHT22;31343;47.520;19.144;2022-08-18T08:28:40;33.80;77.70
45619;DHT22;31343;47.520;19.144;2022-08-18T08:31:13;33.40;77.50
45619;DHT22;31343;47.520;19.144;2022-08-18T08:33:51;32.80;79.00
45619;DHT22;31343;47.520;19.144;2022-08-18T08:36:23;32.80;79.00
45619;DHT22;31343;47.520;19.144;2022-08-18T08:38:52;33.30;78.40
45619;DHT22;31343;47.520;19.144;2022-08-18T08:41:23;33.70;78.00
45619;DHT22;31343;47.520;19.144;2022-08-18T08:43:56;33.50;77.90
45619;DHT22;31343;47.520;19.144;2022-08-18T08:46:25;33.50;78.80
45619;DHT22;31343;47.520;19.144;2022-08-18T08:49:41;33.40;78.00
45619;DHT22;31343;47.520;19.144;2022-08-18T08:51:45;33.30;78.80
45619;DHT22;31343;47.520;19.144;2022-08-18T08:54:16;33.30;79.00
45619;DHT22;31343;47.520;19.144;2022-08-18T08:56:44;33.30;78.90
45619;DHT22;31343;47.520;19.144;2022-08-18T08:59:11;33.80;78.70
45619;DHT22;31343;47.520;19.144;2022-08-18T09:01:45;33.80;77.50
45619;DHT22;31343;47.520;19.144;2022-08-18T09:14:30;33.10;77.60
45619;DHT22;31343;47.520;19.144;2022-08-18T09:24:44;33.20;77.20
45619;DHT22;31343;47.520;19.144;2022-08-18T09:27:11;33.00;77.50
45619;DHT22;31343;47.520;19.144;2022-08-18T09:37:24;33.20;75.50
45619;DHT22;31343;47.520;19.144;2022-08-18T09:40:01;33.00;75.60
45619;DHT22;31343;47.520;19.144;2022-08-18T09:42:50;33.00;77.10
45619;DHT22;31343;47.520;19.144;2022-08-18T09:47:57;33.10;75.30
45619;DHT22;31343;47.520;19.144;2022-08-18T09:53:13;33.20;75.00
45619;DHT22;31343;47.520;19.144;2022-08-18T09:55:39;33.40;74.80
45619;DHT22;31343;47.520;19.144;2022-08-18T10:00:40;33.30;75.50
45619;DHT22;31343;47.520;19.144;2022-08-18T10:03:10;33.10;75.00
45619;DHT22;31343;47.520;19.144;2022-08-18T10:05:37;33.40;74.60
45619;DHT22;31343;47.520;19.144;2022-08-18T10:13:17;33.50;73.90
45619;DHT22;31343;47.520;19.144;2022-08-18T10:21:06;34.30;72.40
45619;DHT22;31343;47.520;19.144;2022-08-18T10:26:57;33.90;70.60
45619;DHT22;31343;47.520;19.144;2022-08-18T10:29:10;33.80;70.60
45619;DHT22;31343;47.520;19.144;2022-08-18T10:34:39;33.80;70.30
45619;DHT22;31343;47.520;19.144;2022-08-18T10:39:44;34.40;69.90
45619;DHT22;31343;47.520;19.144;2022-08-18T10:42:13;34.60;69.50
45619;DHT22;31343;47.520;19.144;2022-08-18T10:44:46;34.40;69.90
45619;DHT22;31343;47.520;19.144;2022-08-18T10:47:25;34.30;70.00
45619;DHT22;31343;47.520;19.144;2022-08-18T10:49:51;34.20;69.50
45619;DHT22;31343;47.520;19.144;2022-08-18T10:57:45;34.40;68.50
45619;DHT22;31343;47.520;19.144;2022-08-18T11:00:19;34.70;67.20
45619;DHT22;31343;47.520;19.144;2022-08-18T11:02:53;34.50;67.80
45619;DHT22;31343;47.520;19.144;2022-08-18T11:05:22;35.00;66.90
45619;DHT22;31343;47.520;19.144;2022-08-18T11:07:49;35.70;67.10
45619;DHT22;31343;47.520;19.144;2022-08-18T11:10:20;36.10;66.00
45619;DHT22;31343;47.520;19.144;2022-08-18T11:12:54;35.80;65.80
45619;DHT22;31343;47.520;19.144;2022-08-18T11:15:30;35.60;65.80
45619;DHT22;31343;47.520;19.144;2022-08-18T11:18:00;36.30;65.80
45619;DHT22;31343;47.520;19.144;2022-08-18T11:20:30;37.00;63.10
45619;DHT22;31343;47.520;19.144;2022-08-18T11:22:57;37.60;63.20
45619;DHT22;31343;47.520;19.144;2022-08-18T11:25:34;37.70;63.00
45619;DHT22;31343;47.520;19.144;2022-08-18T11:28:00;38.20;62.00
45619;DHT22;31343;47.520;19.144;2022-08-18T11:30:36;39.00;60.80
45619;DHT22;31343;47.520;19.144;2022-08-18T11:33:05;39.70;59.80
45619;DHT22;31343;47.520;19.144;2022-08-18T11:35:33;39.10;56.90
45619;DHT22;31343;47.520;19.144;2022-08-18T11:38:03;39.20;57.20
45619;DHT22;31343;47.520;19.144;2022-08-18T11:40:32;39.00;56.80
45619;DHT22;31343;47.520;19.144;2022-08-18T11:45:28;38.10;57.40
45619;DHT22;31343;47.520;19.144;2022-08-18T11:47:57;39.10;55.60
45619;DHT22;31343;47.520;19.144;2022-08-18T11:50:30;39.40;55.90
45619;DHT22;31343;47.520;19.144;2022-08-18T11:53:09;39.70;56.40
45619;DHT22;31343;47.520;19.144;2022-08-18T11:55:36;40.00;55.00
45619;DHT22;31343;47.520;19.144;2022-08-18T11:58:02;40.80;54.80
45619;DHT22;31343;47.520;19.144;2022-08-18T12:03:03;40.50;52.70
45619;DHT22;31343;47.520;19.144;2022-08-18T12:05:39;40.50;53.00
45619;DHT22;31343;47.520;19.144;2022-08-18T12:08:14;40.80;53.20
45619;DHT22;31343;47.520;19.144;2022-08-18T12:10:40;41.30;52.20
45619;DHT22;31343;47.520;19.144;2022-08-18T12:13:06;41.70;52.10
45619;DHT22;31343;47.520;19.144;2022-08-18T12:15:32;41.90;50.50
45619;DHT22;31343;47.520;19.144;2022-08-18T12:17:58;41.30;51.40
45619;DHT22;31343;47.520;19.144;2022-08-18T12:20:25;40.00;52.70
45619;DHT22;31343;47.520;19.144;2022-08-18T12:22:51;40.30;52.80
45619;DHT22;31343;47.520;19.144;2022-08-18T12:25:19;39.50;52.20
45619;DHT22;31343;47.520;19.144;2022-08-18T12:27:45;40.10;52.80
45619;DHT22;31343;47.520;19.144;2022-08-18T12:30:11;40.20;52.20
45619;DHT22;31343;47.520;19.144;2022-08-18T12:32:37;40.90;51.90
45619;DHT22;31343;47.520;19.144;2022-08-18T12:35:03;40.70;52.20
45619;DHT22;31343;47.520;19.144;2022-08-18T12:37:29;40.40;52.80
45619;DHT22;31343;47.520;19.144;2022-08-18T12:39:55;40.20;52.30
45619;DHT22;31343;47.520;19.144;2022-08-18T12:42:22;39.80;52.60
45619;DHT22;31343;47.520;19.144;2022-08-18T12:44:47;40.30;52.80
45619;DHT22;31343;47.520;19.144;2022-08-18T12:47:15;40.90;51.90
45619;DHT22;31343;47.520;19.144;2022-08-18T12:49:41;39.80;52.40
45619;DHT22;31343;47.520;19.144;2022-08-18T12:52:07;40.30;52.30
45619;DHT22;31343;47.520;19.144;2022-08-18T12:54:33;40.50;52.10
45619;DHT22;31343;47.520;19.144;2022-08-18T12:57:01;41.10;52.60
45619;DHT22;31343;47.520;19.144;2022-08-18T12:59:26;40.90;52.00
45619;DHT22;31343;47.520;19.144;2022-08-18T13:01:52;40.20;51.90
45619;DHT22;31343;47.520;19.144;2022-08-18T13:04:18;39.40;51.90
45619;DHT22;31343;47.520;19.144;2022-08-18T13:06:53;38.60;53.40
45619;DHT22;31343;47.520;19.144;2022-08-18T13:09:19;38.60;53.60
45619;DHT22;31343;47.520;19.144;2022-08-18T13:11:45;38.90;53.60
45619;DHT22;31343;47.520;19.144;2022-08-18T13:14:11;38.80;53.00
45619;DHT22;31343;47.520;19.144;2022-08-18T13:16:38;38.30;53.40
45619;DHT22;31343;47.520;19.144;2022-08-18T13:19:04;37.60;53.60
45619;DHT22;31343;47.520;19.144;2022-08-18T13:21:30;37.10;54.70
45619;DHT22;31343;47.520;19.144;2022-08-18T13:23:56;37.30;54.40
45619;DHT22;31343;47.520;19.144;2022-08-18T13:26:28;37.00;54.20
45619;DHT22;31343;47.520;19.144;2022-08-18T13:28:54;37.20;55.00
45619;DHT22;31343;47.520;19.144;2022-08-18T13:31:20;37.30;54.10
45619;DHT22;31343;47.520;19.144;2022-08-18T13:33:46;37.30;54.50
45619;DHT22;31343;47.520;19.144;2022-08-18T13:36:11;37.40;54.10
45619;DHT22;31343;47.520;19.144;2022-08-18T13:38:37;37.50;54.60
45619;DHT22;31343;47.520;19.144;2022-08-18T13:41:04;37.20;54.30
45619;DHT22;31343;47.520;19.144;2022-08-18T13:43:33;37.40;55.00
45619;DHT22;31343;47.520;19.144;2022-08-18T13:46:00;37.40;54.00
45619;DHT22;31343;47.520;19.144;2022-08-18T13:48:26;37.30;54.40
45619;DHT22;31343;47.520;19.144;2022-08-18T13:50:53;37.30;54.60
45619;DHT22;31343;47.520;19.144;2022-08-18T13:53:19;37.00;54.60
45619;DHT22;31343;47.520;19.144;2022-08-18T13:55:46;36.40;55.30
45619;DHT22;31343;47.520;19.144;2022-08-18T13:58:12;36.30;55.60
45619;DHT22;31343;47.520;19.144;2022-08-18T14:00:38;36.30;55.70
45619;DHT22;31343;47.520;19.144;2022-08-18T14:03:04;36.30;55.60
45619;DHT22;31343;47.520;19.144;2022-08-18T14:05:31;36.40;56.00
45619;DHT22;31343;47.520;19.144;2022-08-18T14:07:57;36.20;55.70
45619;DHT22;31343;47.520;19.144;2022-08-18T14:10:24;36.10;55.90
45619;DHT22;31343;47.520;19.144;2022-08-18T14:12:51;36.10;55.30
45619;DHT22;31343;47.520;19.144;2022-08-18T14:15:18;36.00;55.90
45619;DHT22;31343;47.520;19.144;2022-08-18T14:17:44;36.00;56.40
45619;DHT22;31343;47.520;19.144;2022-08-18T14:20:09;36.20;56.10
45619;DHT22;31343;47.520;19.144;2022-08-18T14:22:55;36.10;55.30
45619;DHT22;31343;47.520;19.144;2022-08-18T14:25:39;35.90;56.40
45619;DHT22;31343;47.520;19.144;2022-08-18T14:28:24;36.00;56.10
45619;DHT22;31343;47.520;19.144;2022-08-18T14:30:49;36.00;56.40
45619;DHT22;31343;47.520;19.144;2022-08-18T14:33:16;36.00;56.40
45619;DHT22;31343;47.520;19.144;2022-08-18T14:35:43;35.90;56.80
45619;DHT22;31343;47.520;19.144;2022-08-18T14:38:09;35.80;56.80
45619;DHT22;31343;47.520;19.144;2022-08-18T14:40:35;35.70;56.80
45619;DHT22;31343;47.520;19.144;2022-08-18T14:43:00;35.70;57.10
45619;DHT22;31343;47.520;19.144;2022-08-18T14:45:28;35.80;56.80
45619;DHT22;31343;47.520;19.144;2022-08-18T14:47:54;35.80;57.20
45619;DHT22;31343;47.520;19.144;2022-08-18T14:50:22;35.80;57.00
45619;DHT22;31343;47.520;19.144;2022-08-18T14:52:48;35.70;57.10
45619;DHT22;31343;47.520;19.144;2022-08-18T14:55:14;35.70;57.30
45619;DHT22;31343;47.520;19.144;2022-08-18T14:57:40;35.70;57.60
45619;DHT22;31343;47.520;19.144;2022-08-18T15:00:07;35.80;57.70
45619;DHT22;31343;47.520;19.144;2022-08-18T15:02:40;35.80;57.30
45619;DHT22;31343;47.520;19.144;2022-08-18T15:05:06;35.80;57.30
45619;DHT22;31343;47.520;19.144;2022-08-18T15:07:33;35.90;57.60
45619;DHT22;31343;47.520;19.144;2022-08-18T15:09:59;36.00;56.10
45619;DHT22;31343;47.520;19.144;2022-08-18T15:12:24;36.00;56.00
45619;DHT22;31343;47.520;19.144;2022-08-18T15:14:50;36.00;56.60
45619;DHT22;31343;47.520;19.144;2022-08-18T15:17:16;36.10;56.30
45619;DHT22;31343;47.520;19.144;2022-08-18T15:19:42;36.00;56.30
45619;DHT22;31343;47.520;19.144;2022-08-18T15:22:09;35.80;56.70
45619;DHT22;31343;47.520;19.144;2022-08-18T15:24:53;35.70;56.40
45619;DHT22;31343;47.520;19.144;2022-08-18T15:27:37;35.60;56.20
45619;DHT22;31343;47.520;19.144;2022-08-18T15:30:07;35.50;56.30
45619;DHT22;31343;47.520;19.144;2022-08-18T15:32:33;35.50;56.90
45619;DHT22;31343;47.520;19.144;2022-08-18T15:34:59;35.60;56.70
45619;DHT22;31343;47.520;19.144;2022-08-18T15:37:25;35.70;55.50
45619;DHT22;31343;47.520;19.144;2022-08-18T15:40:07;35.60;55.70
45619;DHT22;31343;47.520;19.144;2022-08-18T15:42:37;35.60;55.20
45619;DHT22;31343;47.520;19.144;2022-08-18T15:45:03;35.70;54.80
45619;DHT22;31343;47.520;19.144;2022-08-18T15:47:29;35.60;54.90
45619;DHT22;31343;47.520;19.144;2022-08-18T15:49:58;35.60;56.40
45619;DHT22;31343;47.520;19.144;2022-08-18T15:52:23;35.70;55.40
45619;DHT22;31343;47.520;19.144;2022-08-18T15:54:49;35.60;55.10
45619;DHT22;31343;47.520;19.144;2022-08-18T15:57:15;35.60;54.90
45619;DHT22;31343;47.520;19.144;2022-08-18T15:59:40;35.60;54.80
45619;DHT22;31343;47.520;19.144;2022-08-18T16:02:07;35.50;54.40
45619;DHT22;31343;47.520;19.144;2022-08-18T16:04:33;35.30;54.40
45619;DHT22;31343;47.520;19.144;2022-08-18T16:07:03;35.30;54.60
45619;DHT22;31343;47.520;19.144;2022-08-18T16:09:28;35.20;54.90
45619;DHT22;31343;47.520;19.144;2022-08-18T16:11:54;35.20;54.90
45619;DHT22;31343;47.520;19.144;2022-08-18T16:14:19;35.20;54.50
45619;DHT22;31343;47.520;19.144;2022-08-18T16:16:45;35.20;54.60
45619;DHT22;31343;47.520;19.144;2022-08-18T16:19:10;35.20;54.30
45619;DHT22;31343;47.520;19.144;2022-08-18T16:21:36;35.10;54.50
45619;DHT22;31343;47.520;19.144;2022-08-18T16:24:05;35.10;54.60
45619;DHT22;31343;47.520;19.144;2022-08-18T16:26:31;35.10;54.90
45619;DHT22;31343;47.520;19.144;2022-08-18T16:28:56;35.10;55.00
45619;DHT22;31343;47.520;19.144;2022-08-18T16:31:23;35.00;54.90
45619;DHT22;31343;47.520;19.144;2022-08-18T16:33:53;35.00;55.20
45619;DHT22;31343;47.520;19.144;2022-08-18T16:36:19;35.00;54.60
45619;DHT22;31343;47.520;19.144;2022-08-18T16:38:45;35.00;55.00
45619;DHT22;31343;47.520;19.144;2022-08-18T16:41:13;34.90;54.90
45619;DHT22;31343;47.520;19.144;2022-08-18T16:43:39;34.80;55.30
45619;DHT22;31343;47.520;19.144;2022-08-18T16:46:13;34.80;55.80
45619;DHT22;31343;47.520;19.144;2022-08-18T16:48:39;34.80;56.60
45619;DHT22;31343;47.520;19.144;2022-08-18T16:51:05;34.80;56.50
45619;DHT22;31343;47.520;19.144;2022-08-18T16:53:31;34.80;55.70
45619;DHT22;31343;47.520;19.144;2022-08-18T16:55:56;34.80;55.30
45619;DHT22;31343;47.520;19.144;2022-08-18T16:58:22;34.80;55.40
45619;DHT22;31343;47.520;19.144;2022-08-18T17:01:08;34.70;55.80
45619;DHT22;31343;47.520;19.144;2022-08-18T17:03:52;34.60;56.10
45619;DHT22;31343;47.520;19.144;2022-08-18T17:06:33;34.50;56.10
45619;DHT22;31343;47.520;19.144;2022-08-18T17:08:59;34.40;56.30
45619;DHT22;31343;47.520;19.144;2022-08-18T17:11:26;34.40;56.70
45619;DHT22;31343;47.520;19.144;2022-08-18T17:13:53;34.30;57.90